Time;durP1;ratioP1;P1;durP2;ratioP2;P2;SDS_P1;SDS_P2;PMS_P1;PMS_P2;Temp;Humidity;BMP_temperature;BMP_pressure;BME280_temperature;BME280_humidity;BME280_pressure;Samples;Min_cycle;Max_cycle;Signal;HPM_P1;HPM_P2
2022/11/19 00:00:39;;;;;;;;;;;9.40;99.50;;;;;;4953961;28;19941;-77
2022/11/19 00:03:06;;;;;;;;;;;9.40;99.60;;;;;;4954383;28;19930;-77
2022/11/19 00:05:39;;;;;;;;;;;9.40;99.60;;;;;;4952940;28;20438;-77
2022/11/19 00:08:05;;;;;;;;;;;9.40;99.60;;;;;;4953789;28;19937;-77
2022/11/19 00:10:33;;;;;;;;;;;9.30;99.60;;;;;;4951533;28;19930;-77
2022/11/19 00:12:58;;;;;;;;;;;9.30;99.60;;;;;;4961116;28;19941;-76
2022/11/19 00:15:25;;;;;;;;;;;9.30;99.70;;;;;;4953788;28;19934;-77
2022/11/19 00:17:52;;;;;;;;;;;9.30;99.70;;;;;;4952004;28;19973;-77
2022/11/19 00:20:19;;;;;;;;;;;9.30;99.90;;;;;;4950220;28;19930;-77
2022/11/19 00:22:51;;;;;;;;;;;9.30;99.80;;;;;;4952598;28;20631;-77
2022/11/19 00:25:17;;;;;;;;;;;9.30;99.80;;;;;;4955078;28;19965;-77
2022/11/19 00:27:44;;;;;;;;;;;9.30;99.80;;;;;;4956731;28;19930;-76
2022/11/19 00:30:11;;;;;;;;;;;9.30;99.80;;;;;;4953495;28;19953;-76
2022/11/19 00:32:38;;;;;;;;;;;9.20;99.80;;;;;;4954253;28;19930;-76
2022/11/19 00:35:05;;;;;;;;;;;9.20;99.80;;;;;;4957970;28;20249;-76
2022/11/19 00:37:31;;;;;;;;;;;9.20;99.80;;;;;;4954067;28;19931;-76
2022/11/19 00:40:00;;;;;;;;;;;9.20;99.80;;;;;;4959144;28;19930;-76
2022/11/19 00:42:27;;;;;;;;;;;9.20;99.80;;;;;;4962032;28;20414;-76
2022/11/19 00:44:53;;;;;;;;;;;9.20;99.80;;;;;;4956705;28;19941;-76
2022/11/19 00:47:20;;;;;;;;;;;9.20;99.80;;;;;;4951140;28;19930;-78
2022/11/19 00:49:47;;;;;;;;;;;9.20;99.80;;;;;;4951253;28;19941;-76
2022/11/19 00:52:13;;;;;;;;;;;9.10;99.80;;;;;;4956861;28;19934;-76
2022/11/19 00:54:40;;;;;;;;;;;9.10;99.90;;;;;;4964163;28;19935;-79
2022/11/19 00:57:08;;;;;;;;;;;9.10;99.90;;;;;;4955836;28;19931;-77
2022/11/19 00:59:34;;;;;;;;;;;9.10;99.90;;;;;;4961737;28;19934;-78
2022/11/19 01:02:01;;;;;;;;;;;9.10;99.90;;;;;;4953046;28;19938;-77
2022/11/19 01:04:27;;;;;;;;;;;9.10;99.90;;;;;;4963728;28;19934;-78
2022/11/19 01:06:54;;;;;;;;;;;9.10;99.90;;;;;;4958551;28;20508;-78
2022/11/19 01:09:20;;;;;;;;;;;9.10;99.90;;;;;;4956282;28;19930;-78
2022/11/19 01:11:47;;;;;;;;;;;9.10;99.90;;;;;;4955610;28;19927;-78
2022/11/19 01:14:15;;;;;;;;;;;9.10;99.90;;;;;;4959686;28;19934;-75
2022/11/19 01:16:42;;;;;;;;;;;9.10;99.90;;;;;;4959252;28;19929;-78
2022/11/19 01:19:09;;;;;;;;;;;9.00;99.90;;;;;;4956794;28;19934;-76
2022/11/19 01:21:36;;;;;;;;;;;9.00;99.90;;;;;;4959515;28;19937;-76
2022/11/19 01:24:03;;;;;;;;;;;9.00;99.90;;;;;;4952309;28;19930;-76
2022/11/19 01:26:30;;;;;;;;;;;9.00;99.90;;;;;;4955512;28;20065;-77
2022/11/19 01:28:57;;;;;;;;;;;9.00;99.90;;;;;;4956252;28;19930;-77
2022/11/19 01:31:26;;;;;;;;;;;9.00;99.90;;;;;;4949157;28;19942;-77
2022/11/19 01:33:53;;;;;;;;;;;9.00;99.90;;;;;;4949767;28;20285;-76
2022/11/19 01:36:20;;;;;;;;;;;9.00;99.90;;;;;;4948159;28;19941;-77
2022/11/19 01:38:49;;;;;;;;;;;9.00;99.90;;;;;;4953196;28;19943;-77
2022/11/19 01:41:16;;;;;;;;;;;9.00;99.90;;;;;;4952190;28;19938;-77
2022/11/19 01:43:44;;;;;;;;;;;8.90;99.90;;;;;;4955664;28;19939;-77
2022/11/19 01:46:11;;;;;;;;;;;9.00;99.90;;;;;;4951289;28;19930;-77
2022/11/19 01:48:40;;;;;;;;;;;9.00;99.90;;;;;;4953129;28;19931;-75
2022/11/19 01:51:09;;;;;;;;;;;9.00;99.90;;;;;;4957728;28;19934;-78
2022/11/19 01:53:36;;;;;;;;;;;8.90;99.90;;;;;;4960941;28;19993;-78
2022/11/19 01:56:04;;;;;;;;;;;8.90;99.90;;;;;;4960830;28;19942;-77
2022/11/19 01:58:32;;;;;;;;;;;8.90;99.90;;;;;;4957992;28;19926;-76
2022/11/19 02:00:59;;;;;;;;;;;8.90;99.90;;;;;;4961923;28;19961;-78
2022/11/19 02:03:27;;;;;;;;;;;8.90;99.90;;;;;;4957443;28;19937;-78
2022/11/19 02:05:55;;;;;;;;;;;8.90;99.90;;;;;;4961359;28;19937;-78
2022/11/19 02:08:39;;;;;;;;;;;8.90;99.90;;;;;;4964985;28;19930;-78
2022/11/19 02:11:14;;;;;;;;;;;8.90;99.90;;;;;;4962046;28;19937;-78
2022/11/19 02:13:42;;;;;;;;;;;8.90;99.90;;;;;;4957174;28;20021;-78
2022/11/19 02:16:17;;;;;;;;;;;8.90;99.90;;;;;;4953758;28;20758;-78
2022/11/19 02:18:47;;;;;;;;;;;8.90;99.90;;;;;;4958884;28;19938;-76
2022/11/19 02:21:21;;;;;;;;;;;8.90;99.90;;;;;;4954894;28;19938;-78
2022/11/19 02:23:52;;;;;;;;;;;8.80;99.90;;;;;;4954334;28;19926;-78
2022/11/19 02:26:33;;;;;;;;;;;8.90;99.90;;;;;;4961838;28;19930;-78
2022/11/19 02:29:07;;;;;;;;;;;8.80;99.90;;;;;;4959555;28;19930;-78
2022/11/19 02:31:38;;;;;;;;;;;8.90;99.90;;;;;;4960244;28;19941;-78
2022/11/19 02:34:07;;;;;;;;;;;8.80;99.90;;;;;;4959440;28;19934;-78
2022/11/19 02:36:36;;;;;;;;;;;8.80;99.90;;;;;;4957433;28;19930;-78
2022/11/19 02:39:05;;;;;;;;;;;8.80;99.90;;;;;;4958871;28;19941;-77
2022/11/19 02:41:34;;;;;;;;;;;8.80;99.90;;;;;;4964467;28;19930;-78
2022/11/19 02:46:45;;;;;;;;;;;8.80;99.90;;;;;;4958423;28;19954;-78
2022/11/19 02:49:12;;;;;;;;;;;8.80;99.90;;;;;;4952976;28;19942;-78
2022/11/19 02:51:38;;;;;;;;;;;8.80;99.90;;;;;;4959535;28;19931;-78
2022/11/19 02:54:05;;;;;;;;;;;8.80;99.90;;;;;;4962492;28;19930;-78
2022/11/19 02:56:50;;;;;;;;;;;8.80;99.90;;;;;;4962025;28;19937;-78
2022/11/19 03:04:49;;;;;;;;;;;8.80;99.90;;;;;;4959297;28;19937;-78
2022/11/19 03:07:17;;;;;;;;;;;8.80;99.90;;;;;;4958686;28;19930;-78
2022/11/19 03:09:46;;;;;;;;;;;8.70;99.90;;;;;;4961069;28;19937;-78
2022/11/19 03:12:18;;;;;;;;;;;8.80;99.90;;;;;;4952023;28;20761;-78
2022/11/19 03:17:42;;;;;;;;;;;8.70;99.90;;;;;;4957245;28;19938;-78
2022/11/19 03:20:12;;;;;;;;;;;8.80;99.90;;;;;;4957467;28;19936;-78
2022/11/19 03:22:42;;;;;;;;;;;8.70;99.90;;;;;;4959490;28;19942;-78
2022/11/19 03:25:10;;;;;;;;;;;8.80;99.90;;;;;;4959550;28;20561;-78
2022/11/19 03:27:38;;;;;;;;;;;8.80;99.90;;;;;;4956973;28;19934;-78
2022/11/19 03:30:06;;;;;;;;;;;8.70;99.90;;;;;;4963613;28;19934;-78
2022/11/19 03:32:35;;;;;;;;;;;8.70;99.90;;;;;;4964528;28;19930;-78
2022/11/19 03:35:07;;;;;;;;;;;8.70;99.90;;;;;;4959676;28;20441;-78
2022/11/19 03:37:36;;;;;;;;;;;8.70;99.90;;;;;;4960934;28;19930;-78
2022/11/19 03:40:04;;;;;;;;;;;8.70;99.90;;;;;;4962212;28;19941;-78
2022/11/19 03:42:31;;;;;;;;;;;8.70;99.90;;;;;;4963182;28;20033;-78
2022/11/19 03:44:59;;;;;;;;;;;8.80;99.90;;;;;;4962152;28;20320;-78
2022/11/19 03:47:30;;;;;;;;;;;8.70;99.90;;;;;;4958369;28;19938;-78
2022/11/19 03:49:58;;;;;;;;;;;8.70;99.90;;;;;;4964073;28;19930;-78
2022/11/19 03:52:26;;;;;;;;;;;8.80;99.90;;;;;;4962143;28;19934;-77
2022/11/19 03:54:53;;;;;;;;;;;8.70;99.90;;;;;;4958006;28;19930;-78
2022/11/19 03:57:21;;;;;;;;;;;8.70;99.90;;;;;;4965919;28;20440;-77
2022/11/19 03:59:48;;;;;;;;;;;8.80;99.90;;;;;;4955295;28;19931;-78
2022/11/19 04:02:15;;;;;;;;;;;8.70;99.90;;;;;;4961386;28;19934;-78
2022/11/19 04:04:41;;;;;;;;;;;8.70;99.90;;;;;;4962249;28;19937;-78
2022/11/19 04:07:10;;;;;;;;;;;8.70;99.90;;;;;;4962819;28;19930;-78
2022/11/19 04:09:39;;;;;;;;;;;8.70;99.90;;;;;;4964424;28;19930;-78
2022/11/19 04:12:06;;;;;;;;;;;8.70;99.90;;;;;;4962693;28;19930;-78
2022/11/19 04:14:32;;;;;;;;;;;8.70;99.90;;;;;;4961256;28;19930;-78
2022/11/19 04:16:59;;;;;;;;;;;8.70;99.90;;;;;;4958346;28;19935;-78
2022/11/19 04:19:25;;;;;;;;;;;8.70;99.90;;;;;;4961484;28;19931;-77
2022/11/19 04:21:52;;;;;;;;;;;8.70;99.90;;;;;;4954912;28;19938;-78
2022/11/19 04:24:18;;;;;;;;;;;8.70;99.90;;;;;;4960555;28;20320;-78
2022/11/19 04:26:46;;;;;;;;;;;8.70;99.90;;;;;;4961808;28;21171;-77
2022/11/19 04:29:13;;;;;;;;;;;8.70;99.90;;;;;;4960427;28;19930;-78
2022/11/19 04:31:39;;;;;;;;;;;8.70;99.90;;;;;;4963111;28;19930;-78
2022/11/19 04:34:06;;;;;;;;;;;8.70;99.90;;;;;;4958869;28;19930;-78
2022/11/19 04:36:33;;;;;;;;;;;8.70;99.90;;;;;;4959359;28;19929;-78
2022/11/19 04:38:59;;;;;;;;;;;8.70;99.90;;;;;;4958100;28;19931;-78
2022/11/19 04:41:26;;;;;;;;;;;8.70;99.90;;;;;;4959805;28;19942;-78
2022/11/19 04:43:54;;;;;;;;;;;8.70;99.90;;;;;;4960991;28;19934;-78
2022/11/19 04:46:20;;;;;;;;;;;8.70;99.90;;;;;;4957676;28;19950;-78
2022/11/19 04:48:47;;;;;;;;;;;8.70;99.90;;;;;;4960909;28;19927;-78
2022/11/19 04:51:13;;;;;;;;;;;8.70;99.90;;;;;;4961623;28;19934;-76
2022/11/19 04:53:40;;;;;;;;;;;8.70;99.90;;;;;;4962493;28;19961;-78
2022/11/19 04:56:07;;;;;;;;;;;8.70;99.90;;;;;;4955561;28;19934;-78
2022/11/19 04:58:34;;;;;;;;;;;8.70;99.90;;;;;;4959186;28;20367;-78
2022/11/19 05:01:02;;;;;;;;;;;8.70;99.90;;;;;;4959560;28;19950;-78
2022/11/19 05:03:28;;;;;;;;;;;8.70;99.90;;;;;;4963684;28;19930;-78
2022/11/19 05:05:55;;;;;;;;;;;8.70;99.90;;;;;;4961334;28;20702;-78
2022/11/19 05:08:22;;;;;;;;;;;8.70;99.90;;;;;;4960356;28;19930;-78
2022/11/19 05:10:48;;;;;;;;;;;8.70;99.90;;;;;;4955985;28;19931;-78
2022/11/19 05:13:15;;;;;;;;;;;8.60;99.90;;;;;;4954742;28;19934;-78
2022/11/19 05:15:42;;;;;;;;;;;8.70;99.90;;;;;;4954228;28;20842;-78
2022/11/19 05:18:10;;;;;;;;;;;8.70;99.90;;;;;;4956405;28;20439;-78
2022/11/19 05:20:36;;;;;;;;;;;8.70;99.90;;;;;;4956080;28;19930;-78
2022/11/19 05:23:03;;;;;;;;;;;8.70;99.90;;;;;;4961324;28;19930;-78
2022/11/19 05:25:29;;;;;;;;;;;8.70;99.90;;;;;;4960892;28;19933;-80
2022/11/19 05:27:56;;;;;;;;;;;8.60;99.90;;;;;;4959857;28;19930;-78
2022/11/19 05:30:22;;;;;;;;;;;8.60;99.90;;;;;;4962974;28;19930;-78
2022/11/19 05:32:49;;;;;;;;;;;8.60;99.90;;;;;;4962218;28;19937;-78
2022/11/19 05:35:17;;;;;;;;;;;8.60;99.90;;;;;;4959335;28;19934;-80
2022/11/19 05:37:43;;;;;;;;;;;8.60;99.90;;;;;;4957767;28;19937;-80
2022/11/19 05:40:10;;;;;;;;;;;8.60;99.90;;;;;;4962463;28;19929;-80
2022/11/19 05:42:37;;;;;;;;;;;8.60;99.90;;;;;;4961664;28;19933;-79
2022/11/19 05:45:04;;;;;;;;;;;8.60;99.90;;;;;;4960556;28;19937;-79
2022/11/19 05:47:30;;;;;;;;;;;8.60;99.90;;;;;;4965028;28;19930;-80
2022/11/19 05:49:57;;;;;;;;;;;8.60;99.90;;;;;;4965480;28;19930;-80
2022/11/19 05:52:25;;;;;;;;;;;8.60;99.90;;;;;;4959642;28;19930;-79
2022/11/19 05:54:51;;;;;;;;;;;8.60;99.90;;;;;;4965855;28;20570;-78
2022/11/19 05:57:18;;;;;;;;;;;8.60;99.90;;;;;;4957232;28;20313;-77
2022/11/19 05:59:44;;;;;;;;;;;8.60;99.90;;;;;;4963677;28;19937;-79
2022/11/19 06:02:11;;;;;;;;;;;8.60;99.90;;;;;;4964112;28;19953;-79
2022/11/19 06:04:38;;;;;;;;;;;8.60;99.90;;;;;;4968553;28;19938;-79
2022/11/19 06:07:04;;;;;;;;;;;8.60;99.90;;;;;;4967591;28;19958;-79
2022/11/19 06:09:32;;;;;;;;;;;8.60;99.90;;;;;;4963691;28;20124;-80
2022/11/19 06:11:59;;;;;;;;;;;8.60;99.90;;;;;;4962213;28;19927;-79
2022/11/19 06:14:26;;;;;;;;;;;8.60;99.90;;;;;;4962908;28;19947;-79
2022/11/19 06:16:54;;;;;;;;;;;8.60;99.90;;;;;;4967197;28;19930;-79
2022/11/19 06:19:21;;;;;;;;;;;8.60;99.90;;;;;;4965726;28;19937;-79
2022/11/19 06:21:47;;;;;;;;;;;8.60;99.90;;;;;;4963469;28;19930;-80
2022/11/19 06:24:14;;;;;;;;;;;8.60;99.90;;;;;;4970105;28;19937;-80
2022/11/19 06:26:42;;;;;;;;;;;8.60;99.90;;;;;;4961481;28;19937;-80
2022/11/19 06:29:09;;;;;;;;;;;8.60;99.90;;;;;;4963089;28;19942;-79
2022/11/19 06:31:36;;;;;;;;;;;8.60;99.90;;;;;;4957990;28;19930;-80
2022/11/19 06:34:02;;;;;;;;;;;8.60;99.90;;;;;;4966969;28;20415;-79
2022/11/19 06:36:29;;;;;;;;;;;8.60;99.90;;;;;;4958752;28;19930;-78
2022/11/19 06:38:56;;;;;;;;;;;8.60;99.90;;;;;;4964019;28;19972;-79
2022/11/19 06:41:22;;;;;;;;;;;8.60;99.90;;;;;;4965392;28;19931;-78
2022/11/19 06:43:50;;;;;;;;;;;8.60;99.90;;;;;;4954348;28;19950;-78
2022/11/19 06:46:17;;;;;;;;;;;8.50;99.90;;;;;;4954780;28;19941;-77
2022/11/19 06:48:43;;;;;;;;;;;8.60;99.90;;;;;;4954359;28;19930;-78
2022/11/19 06:51:10;;;;;;;;;;;8.50;99.90;;;;;;4965076;28;19930;-78
2022/11/19 06:53:36;;;;;;;;;;;8.50;99.90;;;;;;4965823;28;19941;-77
2022/11/19 06:56:04;;;;;;;;;;;8.60;99.90;;;;;;4963372;28;19930;-77
2022/11/19 06:58:31;;;;;;;;;;;8.50;99.90;;;;;;4957500;28;19946;-78
2022/11/19 07:00:59;;;;;;;;;;;8.50;99.90;;;;;;4960913;28;19937;-78
2022/11/19 07:03:26;;;;;;;;;;;8.50;99.90;;;;;;4957349;28;19935;-78
2022/11/19 07:05:55;;;;;;;;;;;8.50;99.90;;;;;;4955168;28;19976;-77
2022/11/19 07:08:23;;;;;;;;;;;8.50;99.90;;;;;;4953456;28;19934;-77
2022/11/19 07:10:49;;;;;;;;;;;8.60;99.90;;;;;;4954729;28;19930;-78
2022/11/19 07:13:16;;;;;;;;;;;8.50;99.90;;;;;;4953043;28;19941;-77
2022/11/19 07:15:42;;;;;;;;;;;8.50;99.90;;;;;;4951812;28;20709;-77
2022/11/19 07:18:10;;;;;;;;;;;8.50;99.90;;;;;;4956577;28;20608;-78
2022/11/19 07:20:37;;;;;;;;;;;8.50;99.90;;;;;;4951337;28;20392;-79
2022/11/19 07:23:03;;;;;;;;;;;8.50;99.90;;;;;;4958730;28;20418;-79
2022/11/19 07:25:30;;;;;;;;;;;8.50;99.90;;;;;;4957151;28;19934;-78
2022/11/19 07:27:56;;;;;;;;;;;8.50;99.90;;;;;;4963256;28;19941;-79
2022/11/19 07:30:23;;;;;;;;;;;8.50;99.90;;;;;;4957692;28;19937;-78
2022/11/19 07:32:50;;;;;;;;;;;8.50;99.90;;;;;;4956134;28;19934;-78
2022/11/19 07:35:17;;;;;;;;;;;8.50;99.90;;;;;;4959819;28;19934;-78
2022/11/19 07:37:44;;;;;;;;;;;8.50;99.90;;;;;;4950325;28;20583;-77
2022/11/19 07:40:13;;;;;;;;;;;8.50;99.90;;;;;;4955359;28;20402;-78
2022/11/19 07:42:51;;;;;;;;;;;8.50;99.90;;;;;;4954908;28;19930;-79
2022/11/19 07:45:19;;;;;;;;;;;8.50;99.90;;;;;;4957876;28;19949;-78
2022/11/19 07:47:45;;;;;;;;;;;8.50;99.90;;;;;;4956437;28;19937;-78
2022/11/19 07:50:12;;;;;;;;;;;8.50;99.90;;;;;;4957523;28;20658;-78
2022/11/19 07:52:40;;;;;;;;;;;8.50;99.90;;;;;;4952863;28;19938;-78
2022/11/19 07:55:07;;;;;;;;;;;8.50;99.90;;;;;;4957792;28;19941;-78
2022/11/19 07:57:34;;;;;;;;;;;8.50;99.90;;;;;;4950742;28;19930;-78
2022/11/19 08:00:01;;;;;;;;;;;8.50;99.90;;;;;;4958935;28;19930;-78
2022/11/19 08:02:27;;;;;;;;;;;8.50;99.90;;;;;;4952355;28;20423;-78
2022/11/19 08:04:54;;;;;;;;;;;8.50;99.90;;;;;;4955806;28;19952;-79
2022/11/19 08:07:20;;;;;;;;;;;8.60;99.90;;;;;;4961536;28;19934;-78
2022/11/19 08:09:48;;;;;;;;;;;8.50;99.90;;;;;;4958968;28;19938;-79
2022/11/19 08:12:15;;;;;;;;;;;8.50;99.90;;;;;;4958672;28;20419;-78
2022/11/19 08:14:42;;;;;;;;;;;8.60;99.90;;;;;;4960055;28;19937;-78
2022/11/19 08:19:53;;;;;;;;;;;8.50;99.90;;;;;;4962707;28;20920;-78
2022/11/19 08:22:19;;;;;;;;;;;8.60;99.90;;;;;;4964262;28;19929;-79
2022/11/19 08:24:46;;;;;;;;;;;8.60;99.90;;;;;;4959688;28;19930;-78
2022/11/19 08:27:14;;;;;;;;;;;8.60;99.90;;;;;;4961527;28;20621;-79
2022/11/19 08:29:40;;;;;;;;;;;8.60;99.90;;;;;;4966402;28;19930;-78
2022/11/19 08:32:07;;;;;;;;;;;8.60;99.90;;;;;;4957785;28;19956;-79
2022/11/19 08:34:33;;;;;;;;;;;8.60;99.90;;;;;;4961863;28;19951;-80
2022/11/19 08:37:00;;;;;;;;;;;8.60;99.90;;;;;;4962217;28;19930;-80
2022/11/19 08:39:26;;;;;;;;;;;8.60;99.90;;;;;;4961153;28;19934;-78
2022/11/19 08:44:38;;;;;;;;;;;8.60;99.90;;;;;;4959120;28;19961;-79
2022/11/19 08:47:05;;;;;;;;;;;8.60;99.90;;;;;;4963009;28;19930;-79
2022/11/19 08:49:32;;;;;;;;;;;8.60;99.90;;;;;;4962768;28;19934;-79
2022/11/19 08:51:58;;;;;;;;;;;8.60;99.90;;;;;;4957201;28;19941;-78
2022/11/19 08:54:25;;;;;;;;;;;8.60;99.90;;;;;;4964305;28;20775;-78
2022/11/19 08:56:51;;;;;;;;;;;8.60;99.90;;;;;;4963833;28;19930;-79
2022/11/19 08:59:20;;;;;;;;;;;8.60;99.90;;;;;;4961724;28;19930;-79
2022/11/19 09:01:49;;;;;;;;;;;8.60;99.90;;;;;;4962564;28;20443;-78
2022/11/19 09:04:15;;;;;;;;;;;8.60;99.90;;;;;;4965863;28;19930;-78
2022/11/19 09:06:42;;;;;;;;;;;8.60;99.90;;;;;;4957844;28;19937;-79
2022/11/19 09:09:09;;;;;;;;;;;8.70;99.90;;;;;;4960455;28;19936;-78
2022/11/19 09:11:36;;;;;;;;;;;8.60;99.90;;;;;;4961224;28;19930;-78
2022/11/19 09:14:02;;;;;;;;;;;8.70;99.90;;;;;;4961623;28;20797;-78
2022/11/19 09:16:29;;;;;;;;;;;8.70;99.90;;;;;;4965957;28;20399;-79
2022/11/19 09:18:57;;;;;;;;;;;8.70;99.90;;;;;;4964018;28;19945;-78
2022/11/19 09:21:23;;;;;;;;;;;8.70;99.90;;;;;;4957928;28;19930;-79
2022/11/19 09:23:50;;;;;;;;;;;8.70;99.90;;;;;;4969706;28;19930;-79
2022/11/19 09:26:17;;;;;;;;;;;8.60;99.90;;;;;;4970051;28;19945;-78
2022/11/19 09:28:44;;;;;;;;;;;8.70;99.90;;;;;;4961356;28;19941;-79
2022/11/19 09:31:11;;;;;;;;;;;8.70;99.90;;;;;;4966888;28;19937;-78
2022/11/19 09:33:40;;;;;;;;;;;8.70;99.90;;;;;;4967452;28;19935;-79
2022/11/19 09:36:09;;;;;;;;;;;8.70;99.90;;;;;;4962460;28;20017;-78
2022/11/19 09:38:36;;;;;;;;;;;8.70;99.90;;;;;;4961843;28;19930;-78
2022/11/19 09:41:11;;;;;;;;;;;8.70;99.90;;;;;;4952300;28;19934;-79
2022/11/19 09:43:42;;;;;;;;;;;8.70;99.90;;;;;;4963859;28;19934;-79
2022/11/19 09:46:13;;;;;;;;;;;8.70;99.90;;;;;;4957910;28;19937;-78
2022/11/19 09:48:39;;;;;;;;;;;8.70;99.90;;;;;;4960967;28;19931;-79
2022/11/19 09:51:09;;;;;;;;;;;8.80;99.90;;;;;;4963647;28;20307;-79
2022/11/19 09:53:40;;;;;;;;;;;8.70;99.90;;;;;;4960903;28;19934;-79
2022/11/19 09:56:07;;;;;;;;;;;8.70;99.90;;;;;;4960673;28;19934;-79
2022/11/19 09:58:35;;;;;;;;;;;8.80;99.90;;;;;;4958982;28;19930;-79
2022/11/19 10:01:02;;;;;;;;;;;8.70;99.90;;;;;;4964250;28;19941;-79
2022/11/19 10:03:29;;;;;;;;;;;8.80;99.90;;;;;;4965293;28;19953;-79
2022/11/19 10:06:01;;;;;;;;;;;8.80;99.90;;;;;;4962642;28;19937;-79
2022/11/19 10:08:34;;;;;;;;;;;8.80;99.90;;;;;;4960042;28;19934;-79
2022/11/19 10:11:07;;;;;;;;;;;8.80;99.90;;;;;;4957219;28;19931;-79
2022/11/19 10:13:43;;;;;;;;;;;8.80;99.90;;;;;;4957232;28;19930;-79
2022/11/19 10:16:18;;;;;;;;;;;8.80;99.90;;;;;;4958048;28;20040;-79
2022/11/19 10:18:51;;;;;;;;;;;8.70;99.90;;;;;;4957265;28;19933;-79
2022/11/19 10:21:22;;;;;;;;;;;8.80;99.90;;;;;;4955933;28;19930;-78
2022/11/19 10:23:53;;;;;;;;;;;8.80;99.90;;;;;;4960481;28;19941;-78
2022/11/19 10:26:24;;;;;;;;;;;8.80;99.90;;;;;;4958957;28;19937;-79
2022/11/19 10:28:53;;;;;;;;;;;8.80;99.90;;;;;;4956743;28;19945;-79
2022/11/19 10:31:25;;;;;;;;;;;8.80;99.90;;;;;;4952260;28;19941;-78
2022/11/19 10:33:54;;;;;;;;;;;8.80;99.90;;;;;;4956290;28;19930;-79
2022/11/19 10:36:23;;;;;;;;;;;8.80;99.90;;;;;;4957470;28;19953;-79
2022/11/19 10:38:54;;;;;;;;;;;8.80;99.90;;;;;;4953026;28;19938;-78
2022/11/19 10:41:23;;;;;;;;;;;8.80;99.90;;;;;;4954313;28;19930;-79
2022/11/19 10:43:52;;;;;;;;;;;8.70;99.90;;;;;;4955084;28;19930;-79
2022/11/19 10:46:20;;;;;;;;;;;8.80;99.90;;;;;;4954243;28;20474;-78
2022/11/19 10:48:49;;;;;;;;;;;8.80;99.90;;;;;;4951347;28;20404;-79
2022/11/19 10:51:20;;;;;;;;;;;8.80;99.90;;;;;;4956962;28;19937;-79
2022/11/19 10:53:47;;;;;;;;;;;8.80;99.90;;;;;;4952142;28;20292;-79
2022/11/19 10:56:17;;;;;;;;;;;8.80;99.90;;;;;;4957844;28;19937;-78
2022/11/19 10:58:45;;;;;;;;;;;8.80;99.90;;;;;;4952459;28;19953;-78
2022/11/19 11:01:14;;;;;;;;;;;8.80;99.90;;;;;;4956214;28;19926;-78
2022/11/19 11:03:43;;;;;;;;;;;8.80;99.90;;;;;;4955671;28;19937;-78
2022/11/19 11:06:11;;;;;;;;;;;8.80;99.90;;;;;;4952897;28;19935;-78
2022/11/19 11:08:47;;;;;;;;;;;8.80;99.90;;;;;;4954958;28;19942;-78
2022/11/19 11:11:18;;;;;;;;;;;8.80;99.90;;;;;;4957817;28;19938;-78
2022/11/19 11:16:39;;;;;;;;;;;8.70;99.90;;;;;;4954258;28;19933;-78
2022/11/19 11:19:11;;;;;;;;;;;8.80;99.90;;;;;;4956397;28;19935;-78
2022/11/19 11:21:38;;;;;;;;;;;8.80;99.90;;;;;;4958294;28;19930;-78
2022/11/19 11:24:05;;;;;;;;;;;8.80;99.90;;;;;;4961035;28;19969;-79
2022/11/19 11:26:35;;;;;;;;;;;8.70;99.90;;;;;;4960926;28;19937;-79
2022/11/19 11:29:03;;;;;;;;;;;8.80;99.90;;;;;;4960894;28;19933;-78
2022/11/19 11:31:33;;;;;;;;;;;8.80;99.90;;;;;;4958736;28;19936;-79
2022/11/19 11:34:01;;;;;;;;;;;8.70;99.90;;;;;;4955575;28;19930;-79
2022/11/19 11:36:28;;;;;;;;;;;8.70;99.90;;;;;;4961117;28;20631;-78
2022/11/19 11:38:56;;;;;;;;;;;8.80;99.90;;;;;;4960543;28;19938;-78
2022/11/19 11:41:24;;;;;;;;;;;8.70;99.90;;;;;;4959748;28;19941;-79
2022/11/19 11:44:01;;;;;;;;;;;8.70;99.90;;;;;;4954337;28;19930;-79
2022/11/19 11:46:34;;;;;;;;;;;8.80;99.90;;;;;;4956322;28;19938;-80
2022/11/19 11:49:01;;;;;;;;;;;8.80;99.90;;;;;;4955928;28;19930;-79
2022/11/19 11:51:29;;;;;;;;;;;8.80;99.90;;;;;;4958229;28;19938;-79
2022/11/19 11:54:06;;;;;;;;;;;8.80;99.90;;;;;;4962873;28;19930;-79
2022/11/19 11:56:32;;;;;;;;;;;8.80;99.90;;;;;;4960595;28;19930;-79
2022/11/19 11:59:15;;;;;;;;;;;8.80;99.90;;;;;;4960967;28;19930;-79
2022/11/19 12:01:41;;;;;;;;;;;8.80;99.90;;;;;;4954376;28;19930;-80
2022/11/19 12:04:11;;;;;;;;;;;8.80;99.90;;;;;;4963313;28;19937;-79
2022/11/19 12:06:42;;;;;;;;;;;8.80;99.90;;;;;;4962682;28;19935;-79
2022/11/19 12:09:15;;;;;;;;;;;8.80;99.90;;;;;;4963707;28;19941;-78
2022/11/19 12:11:56;;;;;;;;;;;8.80;99.90;;;;;;4962407;28;19925;-80
2022/11/19 12:14:27;;;;;;;;;;;8.80;99.90;;;;;;4954688;28;20314;-78
2022/11/19 12:17:08;;;;;;;;;;;8.80;99.90;;;;;;4959392;28;19941;-79
2022/11/19 12:19:52;;;;;;;;;;;8.80;99.90;;;;;;4956187;28;20473;-78
2022/11/19 12:22:26;;;;;;;;;;;8.80;99.90;;;;;;4949717;28;19934;-79
2022/11/19 12:24:59;;;;;;;;;;;8.80;99.90;;;;;;4960592;28;19929;-79
2022/11/19 12:27:32;;;;;;;;;;;8.80;99.90;;;;;;4966942;28;19953;-80
2022/11/19 12:30:04;;;;;;;;;;;8.80;99.90;;;;;;4965968;28;20808;-79
2022/11/19 12:32:42;;;;;;;;;;;8.70;99.90;;;;;;4961116;28;20033;-80
2022/11/19 12:35:30;;;;;;;;;;;8.80;99.90;;;;;;4959500;28;19938;-79
2022/11/19 12:38:03;;;;;;;;;;;8.80;99.90;;;;;;4953473;28;19937;-80
2022/11/19 12:40:35;;;;;;;;;;;8.80;99.90;;;;;;4960213;28;19930;-80
2022/11/19 12:43:09;;;;;;;;;;;8.80;99.90;;;;;;4960291;28;19934;-80
2022/11/19 12:45:41;;;;;;;;;;;8.80;99.90;;;;;;4957833;28;19937;-79
2022/11/19 12:48:16;;;;;;;;;;;8.70;99.90;;;;;;4962075;28;20748;-79
2022/11/19 12:50:46;;;;;;;;;;;8.70;99.90;;;;;;4958858;28;19930;-80
2022/11/19 12:53:17;;;;;;;;;;;8.70;99.90;;;;;;4967585;28;19930;-79
2022/11/19 12:55:47;;;;;;;;;;;8.70;99.90;;;;;;4957569;28;20112;-80
2022/11/19 12:58:18;;;;;;;;;;;8.70;99.90;;;;;;4959467;28;19930;-79
2022/11/19 13:00:51;;;;;;;;;;;8.70;99.90;;;;;;4952749;28;19931;-79
2022/11/19 13:03:20;;;;;;;;;;;8.70;99.90;;;;;;4958351;28;19934;-79
2022/11/19 13:05:50;;;;;;;;;;;8.70;99.90;;;;;;4957670;28;20036;-80
2022/11/19 13:08:20;;;;;;;;;;;8.60;99.90;;;;;;4963709;28;19937;-79
2022/11/19 13:10:49;;;;;;;;;;;8.70;99.90;;;;;;4959395;28;20006;-79
2022/11/19 13:13:16;;;;;;;;;;;8.70;99.90;;;;;;4960695;28;19930;-79
2022/11/19 13:15:45;;;;;;;;;;;8.60;99.90;;;;;;4963446;28;19937;-79
2022/11/19 13:18:15;;;;;;;;;;;8.60;99.90;;;;;;4957848;28;20056;-79
2022/11/19 13:20:44;;;;;;;;;;;8.60;99.90;;;;;;4959815;28;19938;-79
2022/11/19 13:23:15;;;;;;;;;;;8.60;99.90;;;;;;4964804;28;19970;-79
2022/11/19 13:25:42;;;;;;;;;;;8.60;99.90;;;;;;4961011;28;19930;-79
2022/11/19 13:28:14;;;;;;;;;;;8.60;99.90;;;;;;4957043;28;19961;-78
2022/11/19 13:30:42;;;;;;;;;;;8.60;99.90;;;;;;4957751;28;19931;-80
2022/11/19 13:33:12;;;;;;;;;;;8.60;99.90;;;;;;4955949;28;19938;-79
2022/11/19 13:35:45;;;;;;;;;;;8.60;99.90;;;;;;4959152;28;19930;-79
2022/11/19 13:38:14;;;;;;;;;;;8.50;99.90;;;;;;4960322;28;19930;-80
2022/11/19 13:40:42;;;;;;;;;;;8.50;99.90;;;;;;4961690;28;19930;-79
2022/11/19 13:46:01;;;;;;;;;;;8.50;99.90;;;;;;4961746;28;19937;-80
2022/11/19 13:48:29;;;;;;;;;;;8.50;99.90;;;;;;4959410;28;19941;-79
2022/11/19 13:50:59;;;;;;;;;;;8.50;99.90;;;;;;4958667;28;20730;-79
2022/11/19 13:53:29;;;;;;;;;;;8.50;99.90;;;;;;4963197;28;20069;-79
2022/11/19 13:55:56;;;;;;;;;;;8.50;99.90;;;;;;4962031;28;20395;-78
2022/11/19 13:58:23;;;;;;;;;;;8.50;99.90;;;;;;4961723;28;19950;-78
2022/11/19 14:01:10;;;;;;;;;;;8.40;99.90;;;;;;4963573;28;19941;-79
2022/11/19 14:03:43;;;;;;;;;;;8.40;99.90;;;;;;4961284;28;19937;-77
2022/11/19 14:06:20;;;;;;;;;;;8.40;99.80;;;;;;4960329;28;19930;-77
2022/11/19 14:08:58;;;;;;;;;;;8.40;99.50;;;;;;4962997;28;19930;-77
2022/11/19 14:11:35;;;;;;;;;;;8.30;99.40;;;;;;4957424;28;19930;-77
2022/11/19 14:26:18;;;;;;;;;;;8.30;99.40;;;;;;4963144;28;20152;-77
2022/11/19 14:28:46;;;;;;;;;;;8.30;99.70;;;;;;4899448;29;20562;-77
2022/11/19 14:31:13;;;;;;;;;;;8.30;99.70;;;;;;4894523;29;19931;-77
2022/11/19 14:33:58;;;;;;;;;;;8.30;99.80;;;;;;4936123;28;19930;-78
2022/11/19 14:36:28;;;;;;;;;;;8.30;99.80;;;;;;4959925;28;20337;-78
2022/11/19 14:38:57;;;;;;;;;;;8.30;99.80;;;;;;4958589;28;19937;-77
2022/11/19 14:41:28;;;;;;;;;;;8.30;99.90;;;;;;4964316;28;19930;-77
2022/11/19 14:44:15;;;;;;;;;;;8.30;99.80;;;;;;4957316;28;19962;-77
2022/11/19 14:46:44;;;;;;;;;;;8.30;99.80;;;;;;4953919;28;20716;-78
2022/11/19 14:49:18;;;;;;;;;;;8.30;99.80;;;;;;4959517;28;19930;-78
2022/11/19 14:51:50;;;;;;;;;;;8.30;99.70;;;;;;4954502;28;19969;-77
2022/11/19 14:54:27;;;;;;;;;;;8.30;99.70;;;;;;4961164;28;19930;-78
2022/11/19 14:57:01;;;;;;;;;;;8.30;99.80;;;;;;4958753;28;21314;-77
2022/11/19 14:59:29;;;;;;;;;;;8.30;99.80;;;;;;4966058;28;19973;-77
2022/11/19 15:01:57;;;;;;;;;;;8.30;99.70;;;;;;4962759;28;19942;-78
2022/11/19 15:04:28;;;;;;;;;;;8.20;99.70;;;;;;4962798;28;19930;-79
2022/11/19 15:06:55;;;;;;;;;;;8.20;99.70;;;;;;4958409;28;19941;-78
2022/11/19 15:09:41;;;;;;;;;;;8.20;99.80;;;;;;4954867;28;19941;-78
2022/11/19 15:12:09;;;;;;;;;;;8.20;99.70;;;;;;4953318;28;19933;-78
2022/11/19 15:15:03;;;;;;;;;;;8.30;99.80;;;;;;4959824;28;19985;-78